createdAt,value
2018-06-12T00:00:41.298Z,75.75
2018-06-12T00:03:10.303Z,75.20
2018-06-12T00:05:38.884Z,75.93
2018-06-12T00:08:07.719Z,75.57
2018-06-12T00:10:36.701Z,75.15
2018-06-12T00:13:05.299Z,74.71
2018-06-12T00:15:33.795Z,75.41
2018-06-12T00:18:06.842Z,75.36
2018-06-12T00:20:36.062Z,75.56
2018-06-12T00:23:05.032Z,75.34
2018-06-12T00:25:33.632Z,75.56
2018-06-12T00:28:04.386Z,75.09
2018-06-12T00:30:33.233Z,74.98
2018-06-12T00:33:01.734Z,75.31
2018-06-12T00:35:30.236Z,75.54
2018-06-12T00:38:01.229Z,75.07
2018-06-12T00:40:29.874Z,75.38
2018-06-12T00:43:00.246Z,75.78
2018-06-12T00:45:29.098Z,75.68
2018-06-12T00:47:58.540Z,75.61
2018-06-12T00:50:27.075Z,74.76
2018-06-12T00:53:00.096Z,74.72
2018-06-12T00:55:28.648Z,75.06
2018-06-12T00:57:57.610Z,75.53
2018-06-12T01:00:26.394Z,74.39
2018-06-12T01:02:55.004Z,74.78
2018-06-12T01:05:23.561Z,74.48
2018-06-12T01:07:52.595Z,75.22
2018-06-12T01:10:22.413Z,74.38
2018-06-12T01:12:57.434Z,74.32
2018-06-12T01:15:25.954Z,74.32
2018-06-12T01:17:54.975Z,74.88
2018-06-12T01:20:23.499Z,75.91
2018-06-12T01:22:53.091Z,75.49
2018-06-12T01:25:26.811Z,74.94
2018-06-12T01:27:55.316Z,75.15
2018-06-12T01:30:24.353Z,74.49
2018-06-12T01:32:52.927Z,74.97
2018-06-12T01:35:21.922Z,74.49
2018-06-12T01:37:50.552Z,73.94
2018-06-12T01:40:19.407Z,74.29
2018-06-12T01:42:48.080Z,74.24
2018-06-12T01:45:16.654Z,74.07
2018-06-12T01:47:45.214Z,74.81
2018-06-12T01:50:15.867Z,74.27
2018-06-12T01:52:44.770Z,74.16
2018-06-12T01:55:19.829Z,74.13
2018-06-12T01:57:48.488Z,75.29
2018-06-12T02:00:17.016Z,74.49
2018-06-12T02:02:45.537Z,75.12
2018-06-12T02:05:14.343Z,74.83
2018-06-12T02:07:42.971Z,75.19
2018-06-12T02:10:11.533Z,74.67
2018-06-12T02:12:40.280Z,75.37
2018-06-12T02:15:09.142Z,74.71
2018-06-12T02:17:37.663Z,75.58
2018-06-12T02:20:06.294Z,75.71
2018-06-12T02:22:37.343Z,75.30
2018-06-12T02:25:06.506Z,74.57
2018-06-12T02:27:36.149Z,75.44
2018-06-12T02:30:05.709Z,75.68
2018-06-12T02:32:34.291Z,76.12
2018-06-12T02:35:04.140Z,75.12
2018-06-12T02:37:36.602Z,75.67
2018-06-12T02:40:05.990Z,75.42
2018-06-12T02:42:34.517Z,76.18
2018-06-12T02:45:03.892Z,75.81
2018-06-12T02:47:32.438Z,75.57
2018-06-12T02:50:01.617Z,75.28
2018-06-12T02:52:35.459Z,75.12
2018-06-12T02:55:04.658Z,75.16
2018-06-12T02:57:33.193Z,74.60
2018-06-12T03:00:03.287Z,74.37
2018-06-12T03:02:31.800Z,74.93
2018-06-12T03:05:05.150Z,74.58
2018-06-12T03:07:33.688Z,75.77
2018-06-12T03:10:03.379Z,75.23
2018-06-12T03:15:11.544Z,75.25
2018-06-12T03:17:43.298Z,74.75
2018-06-12T03:20:11.835Z,74.90
2018-06-12T03:22:40.633Z,75.22
2018-06-12T03:25:09.139Z,75.80
2018-06-12T03:27:38.142Z,75.16
2018-06-12T03:30:06.636Z,75.34
2018-06-12T03:32:35.126Z,75.95
2018-06-12T03:35:03.978Z,76.04
2018-06-12T03:37:32.490Z,75.93
2018-06-12T03:40:06.388Z,75.84
2018-06-12T03:42:34.962Z,75.85
2018-06-12T03:45:03.882Z,76.21
2018-06-12T03:47:32.514Z,76.25
2018-06-12T03:50:01.106Z,75.89
2018-06-12T03:52:33.523Z,75.76
2018-06-12T03:55:02.045Z,76.13
2018-06-12T03:57:30.758Z,75.77
2018-06-12T04:00:00.683Z,75.80
2018-06-12T04:02:29.178Z,76.21
2018-06-12T04:04:57.662Z,75.46
2018-06-12T04:07:26.504Z,74.76
2018-06-12T04:09:59.311Z,75.81
2018-06-12T04:12:27.838Z,75.81
2018-06-12T04:14:57.752Z,75.50
2018-06-12T04:17:26.271Z,75.53
2018-06-12T04:19:54.838Z,75.64
2018-06-12T04:22:23.486Z,75.54
2018-06-12T04:24:52.666Z,74.64
2018-06-12T04:27:21.178Z,75.05
2018-06-12T04:29:50.053Z,74.97
2018-06-12T04:32:18.999Z,74.95
2018-06-12T04:34:47.637Z,74.24
2018-06-12T04:39:51.347Z,73.40
2018-06-12T04:42:22.721Z,72.76
2018-06-12T04:44:51.475Z,73.10
2018-06-12T04:47:20.095Z,73.04
2018-06-12T04:49:49.015Z,72.67
2018-06-12T04:52:18.807Z,73.33
2018-06-12T04:54:47.417Z,72.67
2018-06-12T04:57:16.888Z,72.07
2018-06-12T04:59:46.046Z,72.02
2018-06-12T05:02:14.589Z,71.98
2018-06-12T05:04:45.131Z,71.12
2018-06-12T05:07:13.911Z,71.27
2018-06-12T05:09:42.446Z,71.41
2018-06-12T05:12:11.947Z,71.27
2018-06-12T05:14:43.711Z,70.40
2018-06-12T05:17:12.411Z,70.93
2018-06-12T05:19:40.991Z,70.34
2018-06-12T05:22:09.502Z,69.70
2018-06-12T05:24:44.155Z,69.76
2018-06-12T05:27:12.839Z,70.51
2018-06-12T05:29:41.664Z,69.58
2018-06-12T05:32:16.134Z,70.08
2018-06-12T05:34:44.945Z,70.18
2018-06-12T05:37:13.549Z,69.60
2018-06-12T05:39:42.388Z,69.97
2018-06-12T05:42:11.180Z,69.95
2018-06-12T05:44:39.814Z,70.03
2018-06-12T05:47:08.314Z,69.49
2018-06-12T05:49:40.730Z,69.16
2018-06-12T05:52:09.233Z,68.52
2018-06-12T05:54:38.202Z,69.27
2018-06-12T05:57:06.891Z,69.42
2018-06-12T05:59:35.702Z,69.11
2018-06-12T06:02:05.329Z,69.04
2018-06-12T06:04:33.806Z,68.46
2018-06-12T06:07:02.594Z,68.54
2018-06-12T06:09:31.430Z,68.31
2018-06-12T06:12:00.214Z,69.09
2018-06-12T06:14:28.715Z,68.61
2018-06-12T06:16:57.531Z,68.82
2018-06-12T06:19:26.195Z,68.47
2018-06-12T06:21:54.715Z,68.41
2018-06-12T06:24:23.544Z,69.03
2018-06-12T06:26:52.126Z,69.18
2018-06-12T06:29:27.019Z,68.99
2018-06-12T06:31:57.660Z,69.03
2018-06-12T06:34:30.056Z,69.07
2018-06-12T06:37:04.900Z,68.83
2018-06-12T06:39:33.955Z,67.98
2018-06-12T06:42:03.503Z,67.82
2018-06-12T06:46:59.199Z,67.67
2018-06-12T06:49:28.861Z,67.24
2018-06-12T06:51:58.905Z,67.86
2018-06-12T06:54:27.715Z,67.37
2018-06-12T06:56:57.158Z,68.32
2018-06-12T06:59:25.767Z,68.38
2018-06-12T07:01:56.311Z,69.09
2018-06-12T07:04:25.109Z,68.18
2018-06-12T07:06:53.691Z,68.26
2018-06-12T07:09:22.573Z,68.81
2018-06-12T07:11:51.185Z,68.73
2018-06-12T07:14:19.746Z,68.86
2018-06-12T07:19:23.988Z,68.69
2018-06-12T07:21:58.888Z,69.02
2018-06-12T07:24:27.818Z,68.86
2018-06-12T07:26:56.528Z,69.08
2018-06-12T07:29:26.402Z,68.35
2018-06-12T07:31:55.878Z,67.73
2018-06-12T07:34:25.553Z,67.51
2018-06-12T07:36:55.415Z,68.79
2018-06-12T07:39:23.963Z,68.42
2018-06-12T07:41:55.350Z,69.68
2018-06-12T07:44:24.253Z,69.93
2018-06-12T07:46:52.789Z,69.73
2018-06-12T07:49:23.246Z,70.08
2018-06-12T07:51:54.250Z,70.63
2018-06-12T07:54:22.785Z,70.35
2018-06-12T07:56:59.402Z,69.73
2018-06-12T07:59:27.922Z,70.53
2018-06-12T08:04:36.359Z,70.38
2018-06-12T08:07:05.017Z,71.24
2018-06-12T08:12:07.649Z,70.69
2018-06-12T08:14:36.149Z,71.67
2018-06-12T08:17:05.283Z,72.17
2018-06-12T08:19:35.620Z,71.15
2018-06-12T08:22:05.740Z,71.06
2018-06-12T08:24:40.051Z,71.15
2018-06-12T08:27:09.064Z,69.96
2018-06-12T08:29:37.608Z,70.07
2018-06-12T08:32:10.896Z,69.31
2018-06-12T08:34:39.716Z,67.31
2018-06-12T08:37:08.330Z,66.56
2018-06-12T08:39:36.918Z,66.81
2018-06-12T08:42:05.843Z,67.39
2018-06-12T08:47:15.278Z,66.97
2018-06-12T08:49:52.439Z,67.49
2018-06-12T08:52:21.286Z,67.40
2018-06-12T08:54:49.949Z,68.21
2018-06-12T08:57:18.734Z,68.43
2018-06-12T08:59:47.559Z,69.00
2018-06-12T09:02:16.366Z,69.21
2018-06-12T09:04:44.894Z,71.74
2018-06-12T09:07:13.618Z,72.52
2018-06-12T09:09:42.471Z,73.03
2018-06-12T09:12:10.979Z,73.05
2018-06-12T09:14:39.783Z,74.21
2018-06-12T09:17:08.420Z,75.44
2018-06-12T09:19:37.010Z,76.65
2018-06-12T09:22:05.595Z,77.70
2018-06-12T09:24:34.222Z,79.12
2018-06-12T09:27:03.285Z,78.16
2018-06-12T09:29:31.831Z,76.83
2018-06-12T09:32:11.544Z,76.85
2018-06-12T09:34:40.149Z,77.42
2018-06-12T09:37:10.270Z,77.74
2018-06-12T09:39:38.790Z,77.75
2018-06-12T09:42:07.405Z,76.64
2018-06-12T09:44:37.193Z,75.64
2018-06-12T09:47:05.767Z,78.00
2018-06-12T09:49:34.425Z,77.95
2018-06-12T09:52:04.679Z,78.59
2018-06-12T09:54:33.243Z,78.28
2018-06-12T09:57:02.079Z,79.25
2018-06-12T09:59:30.927Z,80.15
2018-06-12T10:01:59.627Z,80.70
2018-06-12T10:04:28.411Z,81.04
2018-06-12T10:06:57.304Z,80.53
2018-06-12T10:09:26.001Z,79.98
2018-06-12T10:12:00.346Z,80.09
2018-06-12T10:14:29.155Z,79.29
2018-06-12T10:17:08.584Z,78.40
2018-06-12T10:19:37.183Z,77.03
2018-06-12T10:22:05.770Z,76.36
2018-06-12T10:24:34.296Z,75.90
2018-06-12T10:27:03.221Z,74.85
2018-06-12T10:29:31.703Z,74.87
2018-06-12T10:32:00.597Z,74.60
2018-06-12T10:34:29.352Z,74.12
2018-06-12T10:36:58.215Z,74.63
2018-06-12T10:39:26.735Z,73.45
2018-06-12T10:41:57.859Z,74.35
2018-06-12T10:44:26.392Z,74.15
2018-06-12T10:47:01.753Z,75.34
2018-06-12T10:49:30.648Z,75.38
2018-06-12T10:51:59.613Z,76.01
2018-06-12T10:54:28.499Z,75.55
2018-06-12T10:56:57.884Z,75.00
2018-06-12T10:59:27.858Z,74.11
2018-06-12T11:02:00.450Z,73.71
2018-06-12T11:04:29.358Z,73.03
2018-06-12T11:07:02.453Z,72.67
2018-06-12T11:09:31.460Z,71.06
2018-06-12T11:12:02.953Z,70.22
2018-06-12T11:14:31.549Z,70.35
2018-06-12T11:17:00.413Z,70.35
2018-06-12T11:19:30.394Z,70.19
2018-06-12T11:21:59.014Z,70.13
2018-06-12T11:24:27.674Z,69.18
2018-06-12T11:26:58.556Z,68.90
2018-06-12T11:29:27.149Z,68.73
2018-06-12T11:31:56.867Z,67.64
2018-06-12T11:34:27.274Z,67.77
2018-06-12T11:36:57.746Z,67.52
2018-06-12T11:39:27.702Z,66.86
2018-06-12T11:41:59.352Z,65.96
2018-06-12T11:44:29.267Z,63.05
2018-06-12T11:46:58.675Z,63.79
2018-06-12T11:49:39.657Z,61.63
2018-06-12T11:52:08.983Z,61.51
2018-06-12T11:54:38.518Z,62.09
2018-06-12T11:57:12.937Z,62.22
2018-06-12T11:59:42.712Z,62.14
2018-06-12T12:02:13.550Z,62.46
2018-06-12T12:04:42.154Z,63.48
2018-06-12T12:07:10.791Z,62.74
2018-06-12T12:09:39.465Z,63.07
2018-06-12T12:12:13.753Z,64.61
2018-06-12T12:14:42.582Z,64.92
2018-06-12T12:17:11.896Z,64.77
2018-06-12T12:19:41.826Z,65.03
2018-06-12T12:22:10.491Z,65.35
2018-06-12T12:24:39.654Z,67.10
2018-06-12T12:27:09.013Z,67.79
2018-06-12T12:29:37.582Z,67.47
2018-06-12T12:32:08.331Z,68.36
2018-06-12T12:34:36.937Z,68.29
2018-06-12T12:37:05.639Z,68.02
2018-06-12T12:39:35.687Z,67.51
2018-06-12T12:42:05.577Z,68.42
2018-06-12T12:44:37.372Z,67.50
2018-06-12T12:47:07.524Z,67.70
2018-06-12T12:49:36.082Z,67.36
2018-06-12T12:52:06.912Z,67.78
2018-06-12T12:54:35.903Z,68.16
2018-06-12T12:57:05.429Z,68.06
2018-06-12T12:59:36.276Z,67.46
2018-06-12T13:02:05.833Z,67.10
2018-06-12T13:04:34.569Z,67.54
2018-06-12T13:07:03.681Z,66.76
2018-06-12T13:09:33.146Z,66.93
2018-06-12T13:12:08.284Z,66.82
2018-06-12T13:14:37.476Z,67.20
2018-06-12T13:17:07.349Z,68.27
2018-06-12T13:19:36.339Z,67.41
2018-06-12T13:22:08.331Z,68.45
2018-06-12T13:24:37.665Z,67.81
2018-06-12T13:27:06.285Z,68.41
2018-06-12T13:29:35.369Z,68.16
2018-06-12T13:32:05.804Z,68.45
2018-06-12T13:34:34.660Z,69.18
2018-06-12T13:37:08.599Z,68.88
2018-06-12T13:39:37.337Z,69.52
2018-06-12T13:42:06.128Z,69.32
2018-06-12T13:44:34.971Z,68.70
2018-06-12T13:47:03.881Z,68.57
2018-06-12T13:49:32.466Z,67.63
2018-06-12T13:52:08.755Z,68.40
2018-06-12T13:54:41.214Z,67.73
2018-06-12T13:57:10.241Z,67.11
2018-06-12T13:59:40.419Z,66.84
2018-06-12T14:02:09.102Z,67.07
2018-06-12T14:04:39.733Z,67.54
2018-06-12T14:07:08.645Z,68.02
2018-06-12T14:09:41.368Z,67.81
2018-06-12T14:12:09.995Z,68.25
2018-06-12T14:14:45.090Z,68.36
2018-06-12T14:17:13.635Z,68.81
2018-06-12T14:19:42.135Z,68.42
2018-06-12T14:22:12.448Z,68.76
2018-06-12T14:24:41.127Z,68.94
2018-06-12T14:27:11.868Z,69.11
2018-06-12T14:29:40.652Z,69.54
2018-06-12T14:32:09.132Z,69.94
2018-06-12T14:34:44.472Z,70.00
2018-06-12T14:37:13.290Z,69.53
2018-06-12T14:39:41.796Z,69.82
2018-06-12T14:42:10.773Z,69.73
2018-06-12T14:44:39.635Z,70.27
2018-06-12T14:47:08.159Z,70.47
2018-06-12T14:49:47.447Z,70.49
2018-06-12T14:52:16.551Z,70.79
2018-06-12T14:54:45.131Z,70.46
2018-06-12T14:57:13.631Z,70.09
2018-06-12T14:59:43.199Z,69.71
2018-06-12T15:02:11.663Z,69.79
2018-06-12T15:04:43.280Z,69.30
2018-06-12T15:07:12.128Z,68.96
2018-06-12T15:09:40.753Z,68.31
2018-06-12T15:12:09.288Z,68.05
2018-06-12T15:14:38.137Z,67.73
2018-06-12T15:17:09.751Z,67.78
2018-06-12T15:19:38.307Z,67.91
2018-06-12T15:22:09.383Z,67.19
2018-06-12T15:24:37.923Z,67.50
2018-06-12T15:27:06.788Z,67.13
2018-06-12T15:32:05.447Z,66.38
2018-06-12T15:34:34.218Z,66.07
2018-06-12T15:37:06.619Z,65.94
2018-06-12T15:39:35.165Z,64.94
2018-06-12T15:42:06.227Z,64.80
2018-06-12T15:44:38.790Z,63.46
2018-06-12T15:47:07.332Z,63.85
2018-06-12T15:49:42.366Z,63.57
2018-06-12T15:52:11.202Z,63.99
2018-06-12T15:54:39.760Z,63.67
2018-06-12T15:57:08.662Z,63.66
2018-06-12T15:59:37.525Z,64.19
2018-06-12T16:02:06.062Z,63.69
2018-06-12T16:04:34.602Z,64.02
2018-06-12T16:07:04.834Z,63.94
2018-06-12T16:09:33.307Z,65.02
2018-06-12T16:12:02.968Z,65.62
2018-06-12T16:14:31.816Z,65.41
2018-06-12T16:17:00.402Z,65.71
2018-06-12T16:19:28.931Z,66.24
2018-06-12T16:21:57.700Z,65.72
2018-06-12T16:24:31.980Z,66.52
2018-06-12T16:27:00.526Z,65.93
2018-06-12T16:29:29.458Z,66.86
2018-06-12T16:31:58.663Z,66.51
2018-06-12T16:34:27.234Z,67.32
2018-06-12T16:39:30.867Z,66.94
2018-06-12T16:42:05.384Z,67.16
2018-06-12T16:44:35.208Z,67.17
2018-06-12T16:47:04.790Z,66.32
2018-06-12T16:49:33.580Z,66.68
2018-06-12T16:52:08.822Z,66.47
2018-06-12T16:54:37.320Z,65.54
2018-06-12T16:57:06.498Z,65.04
2018-06-12T16:59:35.464Z,65.54
2018-06-12T17:02:05.183Z,65.45
2018-06-12T17:04:38.613Z,65.16
2018-06-12T17:07:07.621Z,64.84
2018-06-12T17:09:36.106Z,64.83
2018-06-12T17:12:09.103Z,63.97
2018-06-12T17:14:41.223Z,64.30
2018-06-12T17:17:09.848Z,64.60
2018-06-12T17:19:39.156Z,64.90
2018-06-12T17:22:09.545Z,63.66
2018-06-12T17:24:38.570Z,63.77
2018-06-12T17:27:07.457Z,63.04
2018-06-12T17:29:36.581Z,63.24
2018-06-12T17:32:06.623Z,62.83
2018-06-12T17:34:39.326Z,63.03
2018-06-12T17:37:08.327Z,62.98
2018-06-12T17:39:37.009Z,62.42
2018-06-12T17:42:06.730Z,63.07
2018-06-12T17:44:40.114Z,62.99
2018-06-12T17:47:09.480Z,62.94
2018-06-12T17:49:38.440Z,63.38
2018-06-12T17:52:07.182Z,63.39
2018-06-12T17:54:38.458Z,63.21
2018-06-12T17:57:07.269Z,62.92
2018-06-12T17:59:36.625Z,64.02
2018-06-12T18:02:06.337Z,63.17
2018-06-12T18:04:36.165Z,63.71
2018-06-12T18:09:45.137Z,63.46
2018-06-12T18:12:20.667Z,63.07
2018-06-12T18:14:49.200Z,62.28
2018-06-12T18:17:18.651Z,61.48
2018-06-12T18:19:52.294Z,62.55
2018-06-12T18:22:22.309Z,62.07
2018-06-12T18:24:51.488Z,62.05
2018-06-12T18:27:20.455Z,60.57
2018-06-12T18:29:49.106Z,61.32
2018-06-12T18:32:18.250Z,61.07
2018-06-12T18:34:46.798Z,60.05
2018-06-12T18:37:15.653Z,60.14
2018-06-12T18:39:44.600Z,60.21
2018-06-12T18:42:13.173Z,60.02
2018-06-12T18:44:41.683Z,60.54
2018-06-12T18:47:10.687Z,60.31
2018-06-12T18:49:39.231Z,59.80
2018-06-12T18:52:09.033Z,60.21
2018-06-12T18:54:37.826Z,60.76
2018-06-12T18:57:06.483Z,60.58
2018-06-12T18:59:35.027Z,61.15
2018-06-12T19:02:05.759Z,61.14
2018-06-12T19:04:34.734Z,60.89
2018-06-12T19:07:05.133Z,60.82
2018-06-12T19:09:38.869Z,61.53
2018-06-12T19:12:07.789Z,61.58
2018-06-12T19:14:36.376Z,61.72
2018-06-12T19:17:06.286Z,60.92
2018-06-12T19:19:35.039Z,60.63
2018-06-12T19:22:09.075Z,61.28
2018-06-12T19:24:38.377Z,61.48
2018-06-12T19:27:07.520Z,61.32
2018-06-12T19:29:36.043Z,61.46
2018-06-12T19:32:10.527Z,60.96
2018-06-12T19:34:39.071Z,61.34
2018-06-12T19:37:07.606Z,60.31
2018-06-12T19:39:42.388Z,61.39
2018-06-12T19:42:11.026Z,61.01
2018-06-12T19:44:39.525Z,61.01
2018-06-12T19:47:09.603Z,61.15
2018-06-12T19:49:38.089Z,61.78
2018-06-12T19:52:06.646Z,62.16
2018-06-12T19:54:35.744Z,62.46
2018-06-12T19:57:07.843Z,62.15
2018-06-12T19:59:36.974Z,62.11
2018-06-12T20:02:07.033Z,61.88
2018-06-12T20:04:35.592Z,62.69
2018-06-12T20:07:04.255Z,62.01
2018-06-12T20:09:33.193Z,62.00
2018-06-12T20:12:04.580Z,61.86
2018-06-12T20:14:37.198Z,62.35
2018-06-12T20:17:06.507Z,62.70
2018-06-12T20:19:35.123Z,62.61
2018-06-12T20:22:04.823Z,62.62
2018-06-12T20:24:33.885Z,62.84
2018-06-12T20:27:02.632Z,63.48
2018-06-12T20:29:31.282Z,62.97
2018-06-12T20:32:01.767Z,63.12
2018-06-12T20:34:30.316Z,63.50
2018-06-12T20:36:58.868Z,63.20
2018-06-12T20:39:29.263Z,63.89
2018-06-12T20:41:59.575Z,63.90
2018-06-12T20:44:35.024Z,64.13
2018-06-12T20:47:03.716Z,64.33
2018-06-12T20:49:36.731Z,64.47
2018-06-12T20:52:06.891Z,64.69
2018-06-12T20:54:35.445Z,64.68
2018-06-12T20:57:05.188Z,65.05
2018-06-12T20:59:40.582Z,64.57
2018-06-12T21:02:10.001Z,65.37
2018-06-12T21:04:38.710Z,64.68
2018-06-12T21:07:07.672Z,65.43
2018-06-12T21:09:36.803Z,64.60
2018-06-12T21:12:05.598Z,64.36
2018-06-12T21:14:39.770Z,64.33
2018-06-12T21:17:08.281Z,65.01
2018-06-12T21:19:37.279Z,64.99
2018-06-12T21:22:17.654Z,64.86
2018-06-12T21:24:46.174Z,64.46
2018-06-12T21:27:24.576Z,63.94
2018-06-12T21:29:53.218Z,64.74
2018-06-12T21:32:22.359Z,64.41
2018-06-12T21:34:53.264Z,64.84
2018-06-12T21:37:21.856Z,64.84
2018-06-12T21:39:52.351Z,64.19
2018-06-12T21:42:22.262Z,64.18
2018-06-12T21:44:50.784Z,64.76
2018-06-12T21:47:19.630Z,64.25
2018-06-12T21:49:48.155Z,64.21
2018-06-12T21:52:16.849Z,64.18
2018-06-12T21:54:45.894Z,64.57
2018-06-12T21:57:14.454Z,64.69
2018-06-12T21:59:45.016Z,64.38
2018-06-12T22:02:13.901Z,65.14
2018-06-12T22:04:44.650Z,64.79
2018-06-12T22:07:13.180Z,65.43
2018-06-12T22:09:47.925Z,65.39
2018-06-12T22:12:16.435Z,65.73
2018-06-12T22:14:50.013Z,65.14
2018-06-12T22:17:21.274Z,65.41
2018-06-12T22:19:49.866Z,65.72
2018-06-12T22:22:18.656Z,65.78
2018-06-12T22:24:49.271Z,66.37
2018-06-12T22:27:17.897Z,66.11
2018-06-12T22:29:50.233Z,66.19
2018-06-12T22:32:19.154Z,65.97
2018-06-12T22:34:47.693Z,65.59
2018-06-12T22:37:17.169Z,65.35
2018-06-12T22:39:45.959Z,65.86
2018-06-12T22:42:14.855Z,65.06
2018-06-12T22:44:43.555Z,64.01
2018-06-12T22:47:12.464Z,64.09
2018-06-12T22:49:41.204Z,64.51
2018-06-12T22:52:09.827Z,64.53
2018-06-12T22:54:38.767Z,64.73
2018-06-12T22:57:07.504Z,63.98
2018-06-12T22:59:36.110Z,63.46
2018-06-12T23:02:06.021Z,63.40
2018-06-12T23:04:40.269Z,62.88
2018-06-12T23:07:08.891Z,62.75
2018-06-12T23:09:40.184Z,61.70
2018-06-12T23:12:08.743Z,61.85
2018-06-12T23:14:37.271Z,62.02
2018-06-12T23:17:09.915Z,61.54
2018-06-12T23:19:49.381Z,62.10
2018-06-12T23:22:18.280Z,61.50
2018-06-12T23:24:57.506Z,62.01
2018-06-12T23:27:26.298Z,61.76
2018-06-12T23:29:54.814Z,62.05
2018-06-12T23:32:23.322Z,61.99
2018-06-12T23:34:52.037Z,62.00
2018-06-12T23:37:20.695Z,62.19
2018-06-12T23:42:29.063Z,61.95
2018-06-12T23:44:57.575Z,62.78
2018-06-12T23:47:26.089Z,61.53
2018-06-12T23:49:55.159Z,62.18
2018-06-12T23:52:23.911Z,61.37
2018-06-12T23:54:52.563Z,61.50
2018-06-12T23:57:21.574Z,61.69
2018-06-12T23:59:50.127Z,61.80
